createdAt,value
2023-12-08T00:02:15.145Z,20.65
2023-12-08T00:04:43.527Z,20.80
2023-12-08T00:07:11.932Z,22.33
2023-12-08T00:09:40.268Z,20.73
2023-12-08T00:12:09.347Z,20.93
2023-12-08T00:14:37.806Z,20.87
2023-12-08T00:17:07.972Z,21.67
2023-12-08T00:19:36.581Z,20.75
2023-12-08T00:22:05.632Z,22.70
2023-12-08T00:24:34.653Z,21.77
2023-12-08T00:27:03.145Z,22.17
2023-12-08T00:29:31.667Z,21.50
2023-12-08T00:32:00.115Z,21.53
2023-12-08T00:34:30.018Z,21.50
2023-12-08T00:36:58.821Z,22.95
2023-12-08T00:39:27.195Z,22.37
2023-12-08T00:41:55.693Z,22.37
2023-12-08T00:44:24.910Z,22.53
2023-12-08T00:46:54.094Z,22.70
2023-12-08T00:49:22.598Z,22.00
2023-12-08T00:51:52.373Z,23.10
2023-12-08T00:54:20.820Z,22.00
2023-12-08T00:56:49.506Z,23.33
2023-12-08T00:59:18.356Z,23.03
2023-12-08T01:01:46.812Z,22.83
2023-12-08T01:04:15.383Z,23.97
2023-12-08T01:06:43.860Z,22.53
2023-12-08T01:09:14.003Z,24.10
2023-12-08T01:11:42.772Z,24.88
2023-12-08T01:14:11.142Z,25.10
2023-12-08T01:16:42.430Z,25.63
2023-12-08T01:19:12.824Z,23.93
2023-12-08T01:21:41.846Z,24.45
2023-12-08T01:24:10.373Z,25.17
2023-12-08T01:26:45.118Z,27.67
2023-12-08T01:29:13.528Z,26.63
2023-12-08T01:31:42.048Z,29.07
2023-12-08T01:34:10.515Z,26.63
2023-12-08T01:36:43.120Z,28.97
2023-12-08T01:39:13.905Z,27.70
2023-12-08T01:41:44.277Z,28.27
2023-12-08T01:44:12.691Z,26.45
2023-12-08T01:46:41.094Z,29.60
2023-12-08T01:49:09.574Z,28.83
2023-12-08T01:51:38.089Z,29.60
2023-12-08T01:54:07.583Z,29.97
2023-12-08T01:56:37.083Z,29.87
2023-12-08T01:59:07.420Z,30.40
2023-12-08T02:01:35.899Z,31.77
2023-12-08T02:04:06.421Z,30.87
2023-12-08T02:06:35.630Z,31.50
2023-12-08T02:09:04.366Z,30.87
2023-12-08T02:11:32.897Z,31.27
2023-12-08T02:14:01.299Z,33.47
2023-12-08T02:16:41.435Z,32.70
2023-12-08T02:19:10.630Z,33.95
2023-12-08T02:21:39.327Z,31.77
2023-12-08T02:24:09.475Z,33.07
2023-12-08T02:26:38.109Z,31.20
2023-12-08T02:29:09.893Z,31.00
2023-12-08T02:31:42.692Z,31.50
2023-12-08T02:34:12.473Z,29.70
2023-12-08T02:36:41.405Z,27.35
2023-12-08T02:39:13.241Z,28.97
2023-12-08T02:41:43.712Z,28.20
2023-12-08T02:46:41.781Z,28.03
2023-12-08T02:49:10.233Z,28.27
2023-12-08T02:51:38.644Z,27.20
2023-12-08T02:54:07.119Z,28.27
2023-12-08T02:56:36.822Z,27.50
2023-12-08T02:59:05.198Z,28.80
2023-12-08T03:01:33.728Z,28.80
2023-12-08T03:04:02.769Z,29.27
2023-12-08T03:06:31.382Z,28.90
2023-12-08T03:08:59.743Z,28.47
2023-12-08T03:11:28.147Z,29.67
2023-12-08T03:13:57.857Z,28.67
2023-12-08T03:16:26.262Z,27.95
2023-12-08T03:18:54.676Z,28.10
2023-12-08T03:21:24.014Z,29.37
2023-12-08T03:23:53.016Z,28.67
2023-12-08T03:26:21.821Z,28.37
2023-12-08T03:28:50.163Z,29.90
2023-12-08T03:31:28.573Z,27.77
2023-12-08T03:33:57.185Z,29.27
2023-12-08T03:36:25.891Z,28.40
2023-12-08T03:38:54.288Z,27.73
2023-12-08T03:41:23.310Z,28.97
2023-12-08T03:43:51.668Z,27.17
2023-12-08T03:46:20.005Z,26.73
2023-12-08T03:48:51.867Z,28.33
2023-12-08T03:51:21.879Z,28.53
2023-12-08T03:53:50.234Z,27.93
2023-12-08T03:56:18.588Z,27.83
2023-12-08T03:58:46.938Z,27.63
2023-12-08T04:01:18.886Z,26.63
2023-12-08T04:03:47.392Z,28.67
2023-12-08T04:06:17.355Z,28.07
2023-12-08T04:08:45.785Z,28.60
2023-12-08T04:11:14.165Z,27.63
2023-12-08T04:13:42.455Z,26.67
2023-12-08T04:16:11.593Z,27.80
2023-12-08T04:18:40.098Z,26.60
2023-12-08T04:21:08.835Z,25.90
2023-12-08T04:23:39.116Z,25.10
2023-12-08T04:26:09.313Z,26.40
2023-12-08T04:28:37.966Z,26.55
2023-12-08T04:31:06.824Z,27.80
2023-12-08T04:33:35.555Z,25.83
2023-12-08T04:36:04.381Z,26.47
2023-12-08T04:38:32.859Z,26.93
2023-12-08T04:41:02.570Z,26.50
2023-12-08T04:43:30.901Z,26.45
2023-12-08T04:45:59.371Z,27.00
2023-12-08T04:48:28.108Z,25.97
2023-12-08T04:50:57.095Z,26.13
2023-12-08T04:53:25.463Z,25.60
2023-12-08T04:55:53.896Z,27.57
2023-12-08T04:58:24.351Z,26.30
2023-12-08T05:00:52.991Z,28.23
2023-12-08T05:03:21.471Z,26.63
2023-12-08T05:05:50.071Z,26.00
2023-12-08T05:08:18.517Z,27.23
2023-12-08T05:10:46.885Z,25.77
2023-12-08T05:13:15.282Z,27.03
2023-12-08T05:15:45.025Z,26.73
2023-12-08T05:18:13.544Z,26.10
2023-12-08T05:20:42.042Z,26.13
2023-12-08T05:23:10.360Z,26.83
2023-12-08T05:25:38.656Z,26.47
2023-12-08T05:28:07.365Z,26.87
2023-12-08T05:30:35.629Z,28.17
2023-12-08T05:33:05.768Z,27.67
2023-12-08T05:35:34.329Z,27.38
2023-12-08T05:38:02.835Z,28.57
2023-12-08T05:40:31.444Z,28.90
2023-12-08T05:43:00.249Z,28.80
2023-12-08T05:45:28.595Z,28.50
2023-12-08T05:47:57.186Z,28.30
2023-12-08T05:50:26.990Z,30.20
2023-12-08T05:52:55.334Z,27.95
2023-12-08T05:55:23.662Z,28.80
2023-12-08T05:57:52.145Z,28.77
2023-12-08T06:00:21.690Z,29.47
2023-12-08T06:02:50.254Z,28.93
2023-12-08T06:05:19.673Z,26.93
2023-12-08T06:07:49.617Z,27.98
2023-12-08T06:10:18.444Z,29.45
2023-12-08T06:12:46.751Z,28.87
2023-12-08T06:15:15.113Z,28.63
2023-12-08T06:17:44.033Z,30.47
2023-12-08T06:20:13.898Z,29.77
2023-12-08T06:22:43.711Z,28.90
2023-12-08T06:25:13.481Z,27.70
2023-12-08T06:27:41.858Z,28.50
2023-12-08T06:30:12.311Z,30.73
2023-12-08T06:35:09.745Z,29.60
2023-12-08T06:37:38.094Z,30.93
2023-12-08T06:40:08.879Z,30.35
2023-12-08T06:42:38.611Z,30.63
2023-12-08T06:45:09.900Z,33.22
2023-12-08T06:47:38.673Z,32.50
2023-12-08T06:50:08.580Z,33.33
2023-12-08T06:52:36.933Z,35.00
2023-12-08T06:55:06.100Z,34.87
2023-12-08T06:57:34.731Z,32.57
2023-12-08T07:00:11.402Z,33.83
2023-12-08T07:02:40.171Z,34.90
2023-12-08T07:05:09.808Z,33.47
2023-12-08T07:07:39.259Z,34.70
2023-12-08T07:10:09.312Z,35.47
2023-12-08T07:12:38.031Z,33.80
2023-12-08T07:15:09.638Z,35.17
2023-12-08T07:17:38.803Z,36.55
2023-12-08T07:20:10.376Z,34.63
2023-12-08T07:22:39.160Z,34.70
2023-12-08T07:25:11.071Z,35.55
2023-12-08T07:27:39.438Z,38.25
2023-12-08T07:30:11.337Z,36.55
2023-12-08T07:32:39.791Z,37.35
2023-12-08T07:35:10.103Z,39.55
2023-12-08T07:37:42.171Z,37.15
2023-12-08T07:40:12.546Z,36.78
2023-12-08T07:42:40.974Z,39.42
2023-12-08T07:45:12.103Z,38.72
2023-12-08T07:47:40.690Z,39.33
2023-12-08T07:50:10.280Z,41.35
2023-12-08T07:52:39.627Z,39.95
2023-12-08T07:55:09.272Z,41.15
2023-12-08T07:57:37.663Z,42.13
2023-12-08T08:00:09.603Z,40.80
2023-12-08T08:02:39.519Z,42.88
2023-12-08T08:05:08.314Z,40.33
2023-12-08T08:07:36.652Z,41.45
2023-12-08T08:10:05.696Z,40.67
2023-12-08T08:12:34.780Z,39.50
2023-12-08T08:15:03.719Z,40.33
2023-12-08T08:17:32.580Z,40.90
2023-12-08T08:20:02.459Z,39.00
2023-12-08T08:22:32.950Z,40.20
2023-12-08T08:25:02.700Z,40.78
2023-12-08T08:27:33.155Z,40.15
2023-12-08T08:30:01.792Z,40.83
2023-12-08T08:32:30.382Z,42.05
2023-12-08T08:34:59.836Z,42.65
2023-12-08T08:37:30.504Z,40.60
2023-12-08T08:39:59.285Z,41.70
2023-12-08T08:42:28.211Z,42.63
2023-12-08T08:44:56.747Z,40.30
2023-12-08T08:47:25.606Z,39.20
2023-12-08T08:49:54.352Z,41.50
2023-12-08T08:52:22.764Z,40.53
2023-12-08T08:54:52.478Z,40.97
2023-12-08T08:57:20.889Z,40.78
2023-12-08T08:59:49.248Z,40.47
2023-12-08T09:02:17.597Z,41.63
2023-12-08T09:04:46.093Z,41.10
2023-12-08T09:07:14.616Z,40.42
2023-12-08T09:09:44.818Z,41.00
2023-12-08T09:12:14.852Z,39.83
2023-12-08T09:14:43.252Z,40.13
2023-12-08T09:17:11.663Z,40.13
2023-12-08T09:19:40.244Z,39.92
2023-12-08T09:22:08.694Z,40.92
2023-12-08T09:24:37.011Z,41.00
2023-12-08T09:27:06.081Z,39.67
2023-12-08T09:29:36.795Z,41.17
2023-12-08T09:32:06.032Z,41.20
2023-12-08T09:34:34.805Z,40.30
2023-12-08T09:37:26.148Z,40.28
2023-12-08T09:39:52.078Z,42.03
2023-12-08T09:42:33.743Z,42.95
2023-12-08T09:45:05.719Z,43.38
2023-12-08T09:47:36.902Z,42.10
2023-12-08T09:50:08.394Z,42.17
2023-12-08T09:52:37.584Z,44.00
2023-12-08T09:55:07.668Z,43.72
2023-12-08T09:57:36.929Z,43.80
2023-12-08T10:00:12.803Z,42.97
2023-12-08T10:02:42.478Z,44.42
2023-12-08T10:05:12.931Z,39.87
2023-12-08T10:10:12.284Z,39.17
2023-12-08T10:12:42.309Z,39.72
2023-12-08T10:15:14.026Z,38.85
2023-12-08T10:17:51.151Z,36.03
2023-12-08T10:20:21.891Z,37.53
2023-12-08T10:22:52.837Z,38.25
2023-12-08T10:25:22.920Z,36.90
2023-12-08T10:27:52.915Z,37.88
2023-12-08T10:30:25.058Z,38.22
2023-12-08T10:32:54.783Z,38.00
2023-12-08T10:35:24.603Z,39.40
2023-12-08T10:37:53.032Z,41.67
2023-12-08T10:40:21.401Z,39.40
2023-12-08T10:42:50.322Z,42.17
2023-12-08T10:45:19.900Z,45.10
2023-12-08T10:47:51.874Z,42.13
2023-12-08T10:50:22.907Z,42.67
2023-12-08T10:55:22.695Z,37.83
2023-12-08T10:57:55.672Z,38.08
2023-12-08T11:00:27.528Z,36.67
2023-12-08T11:02:58.653Z,34.88
2023-12-08T11:05:32.871Z,35.17
2023-12-08T11:08:05.114Z,34.55
2023-12-08T11:10:38.918Z,34.33
2023-12-08T11:13:11.355Z,34.58
2023-12-08T11:15:43.605Z,32.10
2023-12-08T11:18:26.021Z,34.95
2023-12-08T11:20:55.094Z,34.03
2023-12-08T11:23:24.141Z,31.65
2023-12-08T11:26:14.260Z,33.72
2023-12-08T11:28:59.074Z,32.40
2023-12-08T11:31:37.619Z,31.50
2023-12-08T11:34:19.262Z,31.10
2023-12-08T11:36:48.108Z,31.77
2023-12-08T11:39:44.751Z,31.08
2023-12-08T11:42:15.047Z,30.73
2023-12-08T11:44:45.651Z,32.15
2023-12-08T11:49:48.352Z,30.10
2023-12-08T11:52:19.689Z,32.25
2023-12-08T11:55:13.628Z,30.52
2023-12-08T11:58:07.059Z,32.20
2023-12-08T12:00:37.677Z,30.25
2023-12-08T12:05:39.679Z,30.85
2023-12-08T12:08:09.602Z,32.53
2023-12-08T12:10:40.511Z,32.40
2023-12-08T12:13:13.930Z,34.30
2023-12-08T12:15:44.051Z,33.88
2023-12-08T12:18:14.739Z,35.72
2023-12-08T12:20:46.458Z,36.25
2023-12-08T12:23:17.405Z,35.63
2023-12-08T12:25:49.449Z,37.88
2023-12-08T12:28:19.362Z,34.72
2023-12-08T12:30:51.144Z,38.50
2023-12-08T12:33:19.835Z,36.42
2023-12-08T12:35:54.355Z,38.90
2023-12-08T12:38:27.119Z,39.92
2023-12-08T12:40:56.719Z,44.42
2023-12-08T12:43:25.506Z,43.80
2023-12-08T12:45:53.971Z,45.67
2023-12-08T12:48:26.922Z,44.50
2023-12-08T12:50:56.922Z,45.25
2023-12-08T12:53:26.180Z,47.67
2023-12-08T12:56:07.088Z,47.60
2023-12-08T12:58:35.387Z,46.38
2023-12-08T13:01:12.857Z,44.53
2023-12-08T13:03:47.600Z,44.63
2023-12-08T13:06:29.036Z,39.13
2023-12-08T13:08:57.765Z,38.67
2023-12-08T13:11:27.766Z,38.65
2023-12-08T13:13:57.603Z,37.90
2023-12-08T13:16:26.370Z,37.88
2023-12-08T13:18:56.110Z,39.10
2023-12-08T13:21:26.421Z,38.30
2023-12-08T13:23:54.911Z,38.30
2023-12-08T13:26:23.294Z,39.67
2023-12-08T13:28:52.190Z,37.40
2023-12-08T13:31:20.586Z,37.35
2023-12-08T13:33:49.023Z,37.30
2023-12-08T13:36:17.654Z,36.25
2023-12-08T13:38:47.898Z,36.70
2023-12-08T13:41:16.308Z,36.65
2023-12-08T13:43:44.761Z,37.47
2023-12-08T13:46:13.072Z,37.15
2023-12-08T13:48:41.642Z,36.72
2023-12-08T13:51:28.440Z,38.55
2023-12-08T13:54:00.193Z,38.08
2023-12-08T13:56:28.623Z,35.17
2023-12-08T13:58:56.901Z,36.08
2023-12-08T14:01:25.307Z,35.10
2023-12-08T14:03:53.880Z,34.15
2023-12-08T14:06:22.408Z,32.13
2023-12-08T14:08:53.195Z,31.77
2023-12-08T14:11:22.998Z,32.58
2023-12-08T14:13:51.417Z,31.15
2023-12-08T14:16:19.958Z,31.15
2023-12-08T14:18:48.492Z,28.08
2023-12-08T14:21:17.008Z,28.80
2023-12-08T14:23:45.505Z,28.33
2023-12-08T14:26:14.142Z,29.23
2023-12-08T14:28:44.044Z,28.90
2023-12-08T14:31:12.427Z,28.17
2023-12-08T14:33:41.441Z,27.20
2023-12-08T14:36:10.700Z,28.63
2023-12-08T14:38:39.975Z,26.88
2023-12-08T14:41:09.708Z,27.83
2023-12-08T14:43:38.156Z,27.48
2023-12-08T14:46:08.022Z,27.48
2023-12-08T14:48:36.628Z,27.55
2023-12-08T14:51:07.245Z,27.38
2023-12-08T14:53:35.805Z,28.40
2023-12-08T14:56:04.365Z,26.30
2023-12-08T14:58:32.737Z,26.70
2023-12-08T15:01:01.033Z,25.95
2023-12-08T15:03:30.865Z,25.15
2023-12-08T15:06:00.670Z,25.42
2023-12-08T15:08:29.191Z,23.73
2023-12-08T15:10:57.533Z,25.50
2023-12-08T15:13:26.100Z,23.55
2023-12-08T15:15:54.560Z,24.30
2023-12-08T15:18:23.129Z,24.73
2023-12-08T15:20:55.725Z,23.90
2023-12-08T15:23:25.128Z,24.05
2023-12-08T15:25:55.059Z,22.83
2023-12-08T15:28:23.511Z,23.08
2023-12-08T15:30:52.263Z,21.52
2023-12-08T15:33:20.915Z,22.52
2023-12-08T15:35:49.803Z,23.13
2023-12-08T15:38:19.980Z,20.60
2023-12-08T15:40:48.391Z,22.48
2023-12-08T15:43:16.946Z,21.92
2023-12-08T15:45:45.531Z,23.13
2023-12-08T15:48:14.141Z,23.98
2023-12-08T15:50:42.665Z,23.10
2023-12-08T15:53:11.160Z,21.20
2023-12-08T15:55:41.132Z,20.88
2023-12-08T15:58:09.513Z,21.70
2023-12-08T16:00:38.633Z,20.90
2023-12-08T16:03:07.919Z,22.20
2023-12-08T16:05:36.369Z,20.52
2023-12-08T16:08:04.865Z,19.77
2023-12-08T16:10:33.210Z,19.88
2023-12-08T16:13:02.895Z,19.30
2023-12-08T16:15:31.364Z,18.90
2023-12-08T16:17:59.975Z,18.40
2023-12-08T16:20:28.431Z,18.98
2023-12-08T16:22:56.736Z,18.73
2023-12-08T16:25:25.399Z,18.65
2023-12-08T16:27:53.782Z,19.42
2023-12-08T16:30:23.554Z,17.92
2023-12-08T16:32:51.975Z,17.63
2023-12-08T16:35:20.305Z,18.60
2023-12-08T16:37:48.606Z,17.13
2023-12-08T16:40:16.945Z,16.98
2023-12-08T16:42:45.315Z,18.70
2023-12-08T16:45:13.809Z,17.60
2023-12-08T16:47:44.421Z,18.08
2023-12-08T16:50:14.267Z,17.20
2023-12-08T16:52:42.711Z,17.60
2023-12-08T16:55:11.316Z,15.98
2023-12-08T16:57:40.555Z,17.10
2023-12-08T17:00:10.479Z,16.70
2023-12-08T17:02:38.999Z,16.88
2023-12-08T17:05:10.276Z,16.48
2023-12-08T17:07:38.644Z,15.82
2023-12-08T17:10:08.866Z,16.02
2023-12-08T17:12:37.280Z,16.42
2023-12-08T17:15:06.784Z,16.77
2023-12-08T17:17:35.188Z,15.52
2023-12-08T17:20:03.826Z,15.82
2023-12-08T17:22:33.974Z,16.15
2023-12-08T17:25:03.788Z,16.40
2023-12-08T17:27:32.524Z,15.47
2023-12-08T17:30:01.091Z,16.00
2023-12-08T17:32:29.646Z,15.93
2023-12-08T17:34:58.492Z,16.08
2023-12-08T17:37:28.135Z,16.10
2023-12-08T17:39:58.082Z,16.45
2023-12-08T17:42:26.780Z,16.63
2023-12-08T17:44:55.333Z,16.50
2023-12-08T17:47:23.734Z,15.13
2023-12-08T17:49:52.277Z,15.10
2023-12-08T17:52:22.929Z,14.80
2023-12-08T17:57:22.836Z,16.88
2023-12-08T17:59:51.214Z,16.75
2023-12-08T18:02:19.564Z,16.35
2023-12-08T18:04:47.925Z,16.52
2023-12-08T18:07:16.328Z,17.67
2023-12-08T18:09:44.717Z,18.58
2023-12-08T18:12:13.133Z,17.52
2023-12-08T18:14:42.860Z,18.05
2023-12-08T18:17:11.351Z,18.17
2023-12-08T18:19:41.296Z,18.13
2023-12-08T18:22:09.768Z,15.05
2023-12-08T18:24:38.270Z,15.57
2023-12-08T18:27:06.972Z,15.73
2023-12-08T18:29:35.452Z,15.90
2023-12-08T18:32:05.712Z,16.05
2023-12-08T18:34:37.649Z,15.68
2023-12-08T18:37:06.502Z,15.50
2023-12-08T18:39:34.821Z,15.05
2023-12-08T18:42:03.329Z,15.38
2023-12-08T18:44:31.722Z,14.93
2023-12-08T18:47:00.121Z,15.25
2023-12-08T18:49:29.871Z,15.18
2023-12-08T18:51:58.315Z,15.60
2023-12-08T18:54:27.583Z,15.60
2023-12-08T18:56:56.047Z,16.10
2023-12-08T18:59:24.402Z,16.20
2023-12-08T19:01:52.973Z,16.08
2023-12-08T19:04:21.373Z,16.90
2023-12-08T19:06:51.113Z,16.90
2023-12-08T19:09:19.591Z,16.08
2023-12-08T19:11:48.114Z,15.52
2023-12-08T19:14:16.539Z,16.52
2023-12-08T19:16:44.892Z,16.70
2023-12-08T19:19:14.175Z,16.60
2023-12-08T19:21:42.902Z,16.52
2023-12-08T19:24:12.653Z,16.92
2023-12-08T19:26:40.997Z,17.80
2023-12-08T19:29:09.388Z,17.23
2023-12-08T19:31:37.856Z,16.63
2023-12-08T19:34:06.767Z,17.20
2023-12-08T19:36:35.515Z,18.48
2023-12-08T19:39:08.135Z,17.13
2023-12-08T19:41:38.055Z,17.35
2023-12-08T19:44:08.102Z,18.70
2023-12-08T19:46:39.373Z,16.90
2023-12-08T19:49:07.947Z,16.42
2023-12-08T19:51:36.345Z,17.63
2023-12-08T19:54:06.361Z,16.88
2023-12-08T19:56:34.719Z,18.52
2023-12-08T19:59:05.242Z,17.25
2023-12-08T20:01:33.595Z,16.90
2023-12-08T20:04:01.984Z,17.10
2023-12-08T20:06:32.228Z,16.80
2023-12-08T20:09:00.791Z,17.95
2023-12-08T20:11:29.187Z,16.92
2023-12-08T20:13:57.802Z,17.60
2023-12-08T20:16:27.623Z,17.33
2023-12-08T20:18:56.528Z,17.17
2023-12-08T20:21:24.970Z,17.38
2023-12-08T20:23:53.660Z,17.88
2023-12-08T20:26:22.024Z,17.15
2023-12-08T20:28:51.707Z,18.15
2023-12-08T20:31:21.758Z,17.67
2023-12-08T20:33:53.059Z,17.95
2023-12-08T20:36:23.947Z,17.73
2023-12-08T20:38:54.427Z,17.95
2023-12-08T20:41:23.197Z,18.55
2023-12-08T20:43:51.678Z,18.95
2023-12-08T20:46:20.132Z,18.10
2023-12-08T20:48:50.057Z,17.58
2023-12-08T20:51:18.593Z,17.13
2023-12-08T20:53:47.556Z,17.88
2023-12-08T20:56:17.869Z,17.42
2023-12-08T20:58:46.387Z,18.00
2023-12-08T21:01:15.166Z,18.42
2023-12-08T21:03:43.614Z,18.63
2023-12-08T21:06:13.512Z,17.10
2023-12-08T21:08:41.964Z,17.02
2023-12-08T21:11:10.341Z,17.35
2023-12-08T21:13:39.130Z,16.70
2023-12-08T21:16:08.481Z,17.30
2023-12-08T21:18:37.023Z,16.35
2023-12-08T21:21:06.095Z,15.50
2023-12-08T21:23:35.889Z,15.40
2023-12-08T21:26:05.005Z,15.85
2023-12-08T21:28:33.795Z,17.25
2023-12-08T21:31:02.192Z,15.43
2023-12-08T21:33:30.736Z,15.65
2023-12-08T21:35:59.233Z,16.60
2023-12-08T21:38:27.883Z,15.75
2023-12-08T21:40:57.938Z,15.38
2023-12-08T21:43:26.289Z,14.57
2023-12-08T21:45:54.714Z,15.63
2023-12-08T21:48:23.180Z,15.90
2023-12-08T21:50:51.653Z,15.00
2023-12-08T21:53:20.003Z,15.80
2023-12-08T21:55:48.433Z,16.48
2023-12-08T21:58:18.515Z,14.77
2023-12-08T22:00:47.440Z,16.35
2023-12-08T22:03:16.059Z,15.35
2023-12-08T22:05:44.443Z,16.27
2023-12-08T22:08:13.402Z,15.38
2023-12-08T22:10:43.025Z,15.52
2023-12-08T22:13:12.520Z,16.30
2023-12-08T22:15:42.382Z,15.90
2023-12-08T22:18:10.921Z,15.30
2023-12-08T22:20:39.333Z,15.30
2023-12-08T22:23:07.801Z,15.45
2023-12-08T22:25:38.062Z,16.05
2023-12-08T22:28:06.782Z,15.57
2023-12-08T22:30:35.207Z,15.82
2023-12-08T22:33:05.119Z,14.68
2023-12-08T22:35:33.558Z,15.18
2023-12-08T22:38:01.994Z,15.70
2023-12-08T22:40:30.316Z,15.07
2023-12-08T22:42:58.833Z,14.80
2023-12-08T22:45:27.160Z,13.95
2023-12-08T22:47:55.562Z,14.02
2023-12-08T22:50:32.143Z,13.73
2023-12-08T22:53:04.473Z,14.05
2023-12-08T22:55:33.133Z,14.57
2023-12-08T22:58:01.731Z,15.77
2023-12-08T23:00:30.191Z,14.63
2023-12-08T23:02:58.931Z,15.00
2023-12-08T23:05:28.758Z,13.82
2023-12-08T23:07:57.118Z,15.73
2023-12-08T23:10:25.872Z,14.75
2023-12-08T23:12:54.322Z,14.85
2023-12-08T23:15:23.361Z,13.98
2023-12-08T23:17:54.117Z,14.73
2023-12-08T23:22:52.374Z,13.93
2023-12-08T23:25:20.819Z,14.32
2023-12-08T23:27:49.156Z,13.88
2023-12-08T23:30:17.679Z,14.13
2023-12-08T23:32:46.079Z,14.05
2023-12-08T23:35:14.547Z,14.05
2023-12-08T23:37:43.128Z,13.10
2023-12-08T23:40:13.824Z,13.35
2023-12-08T23:42:42.454Z,13.20
2023-12-08T23:45:13.707Z,14.27
2023-12-08T23:47:42.768Z,12.90
2023-12-08T23:50:11.688Z,13.85
2023-12-08T23:52:40.032Z,13.25
2023-12-08T23:55:09.014Z,14.80
2023-12-08T23:57:38.713Z,13.85
